SWA3155 KMDW-KCMH
Flight info
| Callsign | SWA3155 |
|---|---|
| Flight time | 0h 49m |
| Altitude | 29000 |
| Route | LEWKE GIJ SEWTO FWA BRYEN DUBLN1 |
| Aircraft | B738/M-SADE2E3GIJ4RWZ/LB1D1 |
Departure
| Time | 2026-05-08 00:46 |
|---|---|
| Airport | Chicago Midway International Airport (KMDW) |
Arrival
| Time | 2026-05-08 01:35 |
|---|---|
| Airport | John Glenn Columbus International Airport (KCMH) |
| Time | Latitude | Longitude | Altitude | Speed | Heading |
|---|---|---|---|---|---|
| 2026-05-08 00:11 | 41.78622 | -87.74654 | 625 ft | 0 kts | 70° |
| 2026-05-08 00:38 | 41.78609 | -87.74679 | 631 ft | 3 kts | 31° |
| 2026-05-08 00:38 | 41.78594 | -87.74694 | 627 ft | 3 kts | 46° |
| 2026-05-08 00:38 | 41.78581 | -87.74714 | 628 ft | 3 kts | 61° |
| 2026-05-08 00:38 | 41.78574 | -87.74738 | 624 ft | 3 kts | 87° |
| 2026-05-08 00:39 | 41.78576 | -87.74761 | 624 ft | 2 kts | 112° |
| 2026-05-08 00:39 | 41.78578 | -87.74770 | 623 ft | 0 kts | 112° |
| 2026-05-08 00:39 | 41.78579 | -87.74770 | 623 ft | 0 kts | 112° |
| 2026-05-08 00:42 | 41.78579 | -87.74758 | 627 ft | 2 kts | 79° |
| 2026-05-08 00:42 | 41.78592 | -87.74751 | 631 ft | 2 kts | 354° |
| 2026-05-08 00:42 | 41.78612 | -87.74774 | 622 ft | 6 kts | 308° |
| 2026-05-08 00:43 | 41.78612 | -87.74842 | 621 ft | 10 kts | 241° |
| 2026-05-08 00:43 | 41.78560 | -87.74916 | 621 ft | 12 kts | 224° |
| 2026-05-08 00:43 | 41.78501 | -87.74993 | 621 ft | 12 kts | 224° |
| 2026-05-08 00:43 | 41.78421 | -87.75096 | 620 ft | 22 kts | 227° |
| 2026-05-08 00:44 | 41.78286 | -87.75263 | 619 ft | 28 kts | 223° |
| 2026-05-08 00:44 | 41.78150 | -87.75436 | 623 ft | 26 kts | 224° |
| 2026-05-08 00:44 | 41.78024 | -87.75597 | 626 ft | 24 kts | 223° |
| 2026-05-08 00:44 | 41.77919 | -87.75759 | 620 ft | 23 kts | 256° |
| 2026-05-08 00:45 | 41.77974 | -87.75858 | 621 ft | 15 kts | 34° |
| 2026-05-08 00:45 | 41.78050 | -87.75761 | 624 ft | 19 kts | 43° |
| 2026-05-08 00:45 | 41.78344 | -87.75388 | 625 ft | 102 kts | 43° |
| 2026-05-08 00:45 | 41.79055 | -87.74495 | 671 ft | 172 kts | 41° |
| 2026-05-08 00:46 | 41.80016 | -87.73413 | 1417 ft | 190 kts | 41° |
| 2026-05-08 00:46 | 41.81022 | -87.72107 | 2195 ft | 209 kts | 39° |
| 2026-05-08 00:46 | 41.82135 | -87.70823 | 2898 ft | 225 kts | 37° |
| 2026-05-08 00:46 | 41.83405 | -87.69389 | 3322 ft | 248 kts | 38° |
| 2026-05-08 00:47 | 41.84741 | -87.67884 | 4152 ft | 253 kts | 36° |
| 2026-05-08 00:47 | 41.86077 | -87.66315 | 5000 ft | 260 kts | 47° |
| 2026-05-08 00:47 | 41.86765 | -87.64066 | 5838 ft | 269 kts | 85° |
| 2026-05-08 00:47 | 41.86480 | -87.61544 | 6536 ft | 285 kts | 105° |
| 2026-05-08 00:48 | 41.85965 | -87.58887 | 7206 ft | 301 kts | 105° |
| 2026-05-08 00:48 | 41.85427 | -87.56135 | 8103 ft | 308 kts | 104° |
| 2026-05-08 00:48 | 41.84884 | -87.53316 | 9041 ft | 316 kts | 104° |
| 2026-05-08 00:48 | 41.84337 | -87.50432 | 9961 ft | 323 kts | 104° |
| 2026-05-08 00:49 | 41.83789 | -87.47495 | 10851 ft | 328 kts | 103° |
| 2026-05-08 00:49 | 41.83232 | -87.44486 | 11590 ft | 341 kts | 104° |
| 2026-05-08 00:49 | 41.82640 | -87.41281 | 11859 ft | 368 kts | 104° |
| 2026-05-08 00:49 | 41.82014 | -87.37875 | 12529 ft | 380 kts | 104° |
| 2026-05-08 00:50 | 41.81379 | -87.34415 | 13402 ft | 385 kts | 104° |
| 2026-05-08 00:50 | 41.80737 | -87.30912 | 14269 ft | 389 kts | 104° |
| 2026-05-08 00:50 | 41.80088 | -87.27373 | 15087 ft | 393 kts | 104° |
| 2026-05-08 00:50 | 41.79428 | -87.23783 | 15878 ft | 399 kts | 104° |
| 2026-05-08 00:51 | 41.78761 | -87.20153 | 16667 ft | 404 kts | 103° |
| 2026-05-08 00:51 | 41.78083 | -87.16476 | 17458 ft | 409 kts | 103° |
| 2026-05-08 00:51 | 41.77349 | -87.12769 | 18222 ft | 415 kts | 109° |
| 2026-05-08 00:51 | 41.76194 | -87.09196 | 18883 ft | 419 kts | 117° |
| 2026-05-08 00:52 | 41.74866 | -87.05698 | 19523 ft | 425 kts | 118° |
| 2026-05-08 00:52 | 41.73482 | -87.02158 | 20116 ft | 431 kts | 119° |
| 2026-05-08 00:52 | 41.72074 | -86.98567 | 20650 ft | 439 kts | 118° |
| 2026-05-08 00:52 | 41.70655 | -86.94919 | 21278 ft | 445 kts | 118° |
| 2026-05-08 00:53 | 41.69231 | -86.91226 | 21969 ft | 448 kts | 118° |
| 2026-05-08 00:53 | 41.67805 | -86.87500 | 22581 ft | 454 kts | 118° |
| 2026-05-08 00:53 | 41.66361 | -86.83711 | 23143 ft | 460 kts | 118° |
| 2026-05-08 00:53 | 41.64900 | -86.79873 | 23677 ft | 466 kts | 118° |
| 2026-05-08 00:54 | 41.63444 | -86.76046 | 24137 ft | 471 kts | 118° |
| 2026-05-08 00:54 | 41.61931 | -86.72073 | 24601 ft | 476 kts | 118° |
| 2026-05-08 00:54 | 41.60441 | -86.68169 | 25047 ft | 481 kts | 118° |
| 2026-05-08 00:54 | 41.58890 | -86.64106 | 25494 ft | 486 kts | 118° |
| 2026-05-08 00:55 | 41.57372 | -86.60141 | 25919 ft | 491 kts | 118° |
| 2026-05-08 00:55 | 41.55810 | -86.56066 | 26381 ft | 496 kts | 119° |
| 2026-05-08 00:55 | 41.54231 | -86.51950 | 26807 ft | 501 kts | 119° |
| 2026-05-08 00:55 | 41.52630 | -86.47787 | 27228 ft | 506 kts | 119° |
| 2026-05-08 00:56 | 41.51015 | -86.43592 | 27644 ft | 510 kts | 119° |
| 2026-05-08 00:56 | 41.49382 | -86.39357 | 27961 ft | 516 kts | 120° |
| 2026-05-08 00:56 | 41.47735 | -86.35092 | 28359 ft | 521 kts | 120° |
| 2026-05-08 00:56 | 41.46071 | -86.30787 | 28830 ft | 523 kts | 120° |
| 2026-05-08 00:57 | 41.44393 | -86.26454 | 29006 ft | 528 kts | 120° |
| 2026-05-08 00:57 | 41.41032 | -86.17786 | 29004 ft | 522 kts | 120° |
| 2026-05-08 00:58 | 41.37688 | -86.09192 | 28980 ft | 524 kts | 120° |
| 2026-05-08 00:58 | 41.34325 | -86.00578 | 28971 ft | 525 kts | 120° |
| 2026-05-08 00:59 | 41.30952 | -85.91965 | 28952 ft | 525 kts | 120° |
| 2026-05-08 00:59 | 41.27571 | -85.83353 | 28954 ft | 525 kts | 120° |
| 2026-05-08 01:00 | 41.24243 | -85.74898 | 28950 ft | 523 kts | 121° |
| 2026-05-08 01:00 | 41.20863 | -85.66330 | 28968 ft | 523 kts | 121° |
| 2026-05-08 01:01 | 41.17469 | -85.57774 | 28985 ft | 523 kts | 121° |
| 2026-05-08 01:01 | 41.14097 | -85.49291 | 29002 ft | 523 kts | 121° |
| 2026-05-08 01:02 | 41.10693 | -85.40748 | 29012 ft | 523 kts | 122° |
| 2026-05-08 01:02 | 41.07287 | -85.32225 | 28998 ft | 524 kts | 122° |
| 2026-05-08 01:03 | 41.03874 | -85.23704 | 28844 ft | 525 kts | 122° |
| 2026-05-08 01:03 | 41.02155 | -85.19421 | 28175 ft | 523 kts | 122° |
| 2026-05-08 01:03 | 41.00460 | -85.15201 | 27719 ft | 516 kts | 122° |
| 2026-05-08 01:03 | 40.98779 | -85.11020 | 27184 ft | 512 kts | 122° |
| 2026-05-08 01:04 | 40.97112 | -85.06884 | 26664 ft | 507 kts | 121° |
| 2026-05-08 01:04 | 40.95457 | -85.02787 | 26169 ft | 503 kts | 121° |
| 2026-05-08 01:04 | 40.93810 | -84.98716 | 25651 ft | 499 kts | 121° |
| 2026-05-08 01:04 | 40.92180 | -84.94692 | 25151 ft | 495 kts | 121° |
| 2026-05-08 01:05 | 40.90560 | -84.90696 | 24642 ft | 492 kts | 121° |
| 2026-05-08 01:05 | 40.88947 | -84.86724 | 24147 ft | 489 kts | 120° |
| 2026-05-08 01:05 | 40.87341 | -84.82771 | 23634 ft | 486 kts | 120° |
| 2026-05-08 01:05 | 40.85746 | -84.78851 | 23039 ft | 483 kts | 120° |
| 2026-05-08 01:06 | 40.84267 | -84.74902 | 22669 ft | 474 kts | 115° |
| 2026-05-08 01:06 | 40.82996 | -84.70940 | 22332 ft | 465 kts | 112° |
| 2026-05-08 01:06 | 40.81820 | -84.66993 | 22017 ft | 458 kts | 111° |
| 2026-05-08 01:06 | 40.80680 | -84.63103 | 21714 ft | 451 kts | 111° |
| 2026-05-08 01:07 | 40.79542 | -84.59256 | 21393 ft | 450 kts | 112° |
| 2026-05-08 01:07 | 40.78383 | -84.55407 | 21086 ft | 452 kts | 112° |
| 2026-05-08 01:07 | 40.77200 | -84.51537 | 20759 ft | 454 kts | 113° |
| 2026-05-08 01:07 | 40.76012 | -84.47696 | 20464 ft | 450 kts | 113° |
| 2026-05-08 01:08 | 40.74828 | -84.43894 | 20163 ft | 446 kts | 113° |
| 2026-05-08 01:08 | 40.73664 | -84.40170 | 19857 ft | 443 kts | 113° |
| 2026-05-08 01:08 | 40.72493 | -84.36433 | 19568 ft | 439 kts | 112° |
| 2026-05-08 01:08 | 40.71331 | -84.32729 | 19263 ft | 436 kts | 112° |
| 2026-05-08 01:09 | 40.70175 | -84.29048 | 18971 ft | 432 kts | 112° |
| 2026-05-08 01:09 | 40.69030 | -84.25406 | 18685 ft | 430 kts | 112° |
| 2026-05-08 01:09 | 40.67890 | -84.21775 | 18394 ft | 427 kts | 112° |
| 2026-05-08 01:09 | 40.67128 | -84.19331 | 18166 ft | 425 kts | 112° |
| 2026-05-08 01:10 | 40.66012 | -84.15797 | 17824 ft | 422 kts | 112° |
| 2026-05-08 01:10 | 40.64896 | -84.12247 | 17511 ft | 418 kts | 112° |
| 2026-05-08 01:10 | 40.63780 | -84.08722 | 17251 ft | 414 kts | 112° |
| 2026-05-08 01:10 | 40.62681 | -84.05237 | 16952 ft | 412 kts | 112° |
| 2026-05-08 01:11 | 40.61579 | -84.01764 | 16667 ft | 409 kts | 112° |
| 2026-05-08 01:11 | 40.60488 | -83.98322 | 16392 ft | 407 kts | 112° |
| 2026-05-08 01:11 | 40.59401 | -83.94899 | 16103 ft | 402 kts | 112° |
| 2026-05-08 01:11 | 40.58331 | -83.91537 | 15824 ft | 393 kts | 112° |
| 2026-05-08 01:12 | 40.57283 | -83.88255 | 15559 ft | 386 kts | 112° |
| 2026-05-08 01:12 | 40.56255 | -83.85035 | 15298 ft | 379 kts | 112° |
| 2026-05-08 01:12 | 40.55246 | -83.81868 | 15059 ft | 372 kts | 112° |
| 2026-05-08 01:12 | 40.54255 | -83.78757 | 14801 ft | 366 kts | 112° |
| 2026-05-08 01:13 | 40.53279 | -83.75697 | 14557 ft | 360 kts | 112° |
| 2026-05-08 01:13 | 40.52325 | -83.72713 | 14312 ft | 355 kts | 112° |
| 2026-05-08 01:13 | 40.51372 | -83.69737 | 14077 ft | 351 kts | 112° |
| 2026-05-08 01:13 | 40.50427 | -83.66794 | 13839 ft | 348 kts | 112° |
| 2026-05-08 01:14 | 40.49476 | -83.63833 | 13565 ft | 346 kts | 112° |
| 2026-05-08 01:14 | 40.48542 | -83.60931 | 13312 ft | 343 kts | 112° |
| 2026-05-08 01:14 | 40.47627 | -83.58091 | 13062 ft | 341 kts | 112° |
| 2026-05-08 01:14 | 40.46706 | -83.55234 | 12834 ft | 338 kts | 113° |
| 2026-05-08 01:15 | 40.45788 | -83.52402 | 12596 ft | 336 kts | 112° |
| 2026-05-08 01:15 | 40.44870 | -83.49565 | 12369 ft | 338 kts | 112° |
| 2026-05-08 01:15 | 40.43845 | -83.46785 | 12133 ft | 339 kts | 123° |
| 2026-05-08 01:15 | 40.42506 | -83.44248 | 11916 ft | 338 kts | 129° |
| 2026-05-08 01:16 | 40.41074 | -83.41800 | 11672 ft | 338 kts | 130° |
| 2026-05-08 01:16 | 40.39636 | -83.39362 | 11444 ft | 338 kts | 129° |
| 2026-05-08 01:16 | 40.38214 | -83.36911 | 11205 ft | 336 kts | 129° |
| 2026-05-08 01:16 | 40.36823 | -83.34474 | 10964 ft | 332 kts | 129° |
| 2026-05-08 01:17 | 40.35465 | -83.32064 | 10741 ft | 327 kts | 128° |
| 2026-05-08 01:17 | 40.34138 | -83.29701 | 10521 ft | 325 kts | 128° |
| 2026-05-08 01:17 | 40.32800 | -83.27319 | 10306 ft | 323 kts | 129° |
| 2026-05-08 01:17 | 40.31458 | -83.24955 | 10081 ft | 322 kts | 132° |
| 2026-05-08 01:18 | 40.29868 | -83.22936 | 9853 ft | 316 kts | 145° |
| 2026-05-08 01:18 | 40.28133 | -83.21194 | 9625 ft | 313 kts | 147° |
| 2026-05-08 01:18 | 40.26390 | -83.19485 | 9391 ft | 312 kts | 146° |
| 2026-05-08 01:18 | 40.24674 | -83.17759 | 9171 ft | 310 kts | 146° |
| 2026-05-08 01:19 | 40.22983 | -83.16021 | 8958 ft | 308 kts | 145° |
| 2026-05-08 01:19 | 40.21302 | -83.14281 | 8746 ft | 306 kts | 145° |
| 2026-05-08 01:19 | 40.19770 | -83.12379 | 8512 ft | 306 kts | 128° |
| 2026-05-08 01:19 | 40.18641 | -83.10048 | 8328 ft | 301 kts | 123° |
| 2026-05-08 01:20 | 40.17550 | -83.07734 | 8119 ft | 296 kts | 124° |
| 2026-05-08 01:20 | 40.16460 | -83.05472 | 7906 ft | 292 kts | 125° |
| 2026-05-08 01:20 | 40.15328 | -83.03283 | 7688 ft | 289 kts | 127° |
| 2026-05-08 01:20 | 40.14187 | -83.01134 | 7489 ft | 287 kts | 127° |
| 2026-05-08 01:21 | 40.13053 | -82.99000 | 7278 ft | 285 kts | 127° |
| 2026-05-08 01:21 | 40.11943 | -82.96905 | 7074 ft | 283 kts | 127° |
| 2026-05-08 01:21 | 40.10826 | -82.94801 | 6867 ft | 281 kts | 128° |
| 2026-05-08 01:21 | 40.09679 | -82.92747 | 6662 ft | 279 kts | 127° |
| 2026-05-08 01:22 | 40.08924 | -82.90435 | 6434 ft | 281 kts | 98° |
| 2026-05-08 01:22 | 40.08777 | -82.87910 | 6258 ft | 278 kts | 94° |
| 2026-05-08 01:22 | 40.08657 | -82.85393 | 6030 ft | 277 kts | 94° |
| 2026-05-08 01:22 | 40.08533 | -82.82904 | 5876 ft | 275 kts | 94° |
| 2026-05-08 01:23 | 40.08402 | -82.80398 | 5590 ft | 279 kts | 94° |
| 2026-05-08 01:23 | 40.08273 | -82.77874 | 5260 ft | 279 kts | 92° |
| 2026-05-08 01:23 | 40.08171 | -82.75340 | 4936 ft | 279 kts | 92° |
| 2026-05-08 01:23 | 40.08086 | -82.72817 | 4596 ft | 278 kts | 91° |
| 2026-05-08 01:24 | 40.07998 | -82.70297 | 4259 ft | 278 kts | 92° |
| 2026-05-08 01:24 | 40.07910 | -82.67780 | 4041 ft | 273 kts | 92° |
| 2026-05-08 01:24 | 40.07818 | -82.65352 | 4008 ft | 263 kts | 92° |
| 2026-05-08 01:24 | 40.07728 | -82.63017 | 3990 ft | 251 kts | 92° |
| 2026-05-08 01:25 | 40.07642 | -82.60796 | 3991 ft | 238 kts | 92° |
| 2026-05-08 01:25 | 40.07559 | -82.58670 | 3992 ft | 233 kts | 92° |
| 2026-05-08 01:25 | 40.07477 | -82.56562 | 4004 ft | 231 kts | 92° |
| 2026-05-08 01:25 | 40.07402 | -82.54495 | 4014 ft | 232 kts | 92° |
| 2026-05-08 01:26 | 40.07316 | -82.52390 | 4023 ft | 232 kts | 92° |
| 2026-05-08 01:26 | 40.07189 | -82.50283 | 4010 ft | 234 kts | 103° |
| 2026-05-08 01:26 | 40.06371 | -82.48515 | 4015 ft | 229 kts | 145° |
| 2026-05-08 01:26 | 40.04916 | -82.47826 | 4028 ft | 222 kts | 178° |
| 2026-05-08 01:27 | 40.03379 | -82.47646 | 4014 ft | 223 kts | 178° |
| 2026-05-08 01:27 | 40.01832 | -82.47526 | 4001 ft | 221 kts | 189° |
| 2026-05-08 01:27 | 40.00507 | -82.48342 | 4008 ft | 210 kts | 231° |
| 2026-05-08 01:27 | 39.99729 | -82.49945 | 4026 ft | 212 kts | 243° |
| 2026-05-08 01:28 | 39.99005 | -82.51645 | 4026 ft | 215 kts | 246° |
| 2026-05-08 01:28 | 39.98439 | -82.53446 | 4023 ft | 214 kts | 252° |
| 2026-05-08 01:28 | 39.97938 | -82.55249 | 4014 ft | 214 kts | 252° |
| 2026-05-08 01:28 | 39.97494 | -82.57101 | 4004 ft | 213 kts | 264° |
| 2026-05-08 01:29 | 39.97606 | -82.59004 | 4029 ft | 211 kts | 279° |
| 2026-05-08 01:29 | 39.97726 | -82.60910 | 4005 ft | 209 kts | 274° |
| 2026-05-08 01:29 | 39.97800 | -82.62750 | 3983 ft | 197 kts | 274° |
| 2026-05-08 01:29 | 39.97891 | -82.64479 | 3988 ft | 184 kts | 275° |
| 2026-05-08 01:30 | 39.97978 | -82.66060 | 3986 ft | 165 kts | 275° |
| 2026-05-08 01:30 | 39.98058 | -82.67512 | 3801 ft | 157 kts | 275° |
| 2026-05-08 01:30 | 39.98135 | -82.68907 | 3604 ft | 151 kts | 275° |
| 2026-05-08 01:30 | 39.98208 | -82.70252 | 3421 ft | 145 kts | 275° |
| 2026-05-08 01:31 | 39.98278 | -82.71517 | 3267 ft | 135 kts | 275° |
| 2026-05-08 01:31 | 39.98346 | -82.72746 | 3055 ft | 136 kts | 275° |
| 2026-05-08 01:31 | 39.98415 | -82.73991 | 2870 ft | 138 kts | 275° |
| 2026-05-08 01:31 | 39.98484 | -82.75235 | 2681 ft | 137 kts | 276° |
| 2026-05-08 01:32 | 39.98553 | -82.76477 | 2504 ft | 138 kts | 275° |
| 2026-05-08 01:32 | 39.98622 | -82.77727 | 2313 ft | 138 kts | 276° |
| 2026-05-08 01:32 | 39.98692 | -82.78978 | 2136 ft | 138 kts | 274° |
| 2026-05-08 01:32 | 39.98761 | -82.80216 | 1954 ft | 139 kts | 275° |
| 2026-05-08 01:33 | 39.98831 | -82.81469 | 1768 ft | 138 kts | 275° |
| 2026-05-08 01:33 | 39.98901 | -82.82718 | 1573 ft | 138 kts | 275° |
| 2026-05-08 01:33 | 39.98971 | -82.83967 | 1412 ft | 138 kts | 274° |
| 2026-05-08 01:33 | 39.99043 | -82.85230 | 1217 ft | 141 kts | 274° |
| 2026-05-08 01:34 | 39.99122 | -82.86520 | 987 ft | 141 kts | 273° |
| 2026-05-08 01:34 | 39.99185 | -82.87745 | 843 ft | 127 kts | 274° |
| 2026-05-08 01:34 | 39.99244 | -82.88794 | 821 ft | 105 kts | 275° |
| 2026-05-08 01:34 | 39.99289 | -82.89579 | 822 ft | 74 kts | 274° |
| 2026-05-08 01:35 | 39.99334 | -82.90005 | 819 ft | 30 kts | 294° |
| 2026-05-08 01:35 | 39.99433 | -82.90211 | 818 ft | 12 kts | 316° |
| 2026-05-08 01:35 | 39.99487 | -82.90198 | 817 ft | 9 kts | 49° |
| 2026-05-08 01:35 | 39.99496 | -82.90100 | 814 ft | 14 kts | 93° |
| 2026-05-08 01:36 | 39.99486 | -82.89919 | 822 ft | 21 kts | 93° |
| 2026-05-08 01:36 | 39.99477 | -82.89729 | 823 ft | 21 kts | 94° |
| 2026-05-08 01:36 | 39.99466 | -82.89545 | 823 ft | 20 kts | 95° |
| 2026-05-08 01:36 | 39.99454 | -82.89364 | 823 ft | 22 kts | 94° |
| 2026-05-08 01:37 | 39.99460 | -82.89192 | 819 ft | 11 kts | 38° |
| 2026-05-08 01:37 | 39.99559 | -82.89177 | 823 ft | 16 kts | 1° |
| 2026-05-08 01:37 | 39.99648 | -82.89127 | 823 ft | 14 kts | 73° |
| 2026-05-08 01:37 | 39.99641 | -82.88965 | 816 ft | 23 kts | 97° |
| 2026-05-08 01:38 | 39.99618 | -82.88754 | 819 ft | 20 kts | 99° |
| 2026-05-08 01:38 | 39.99601 | -82.88599 | 819 ft | 8 kts | 87° |
| 2026-05-08 01:38 | 39.99641 | -82.88558 | 819 ft | 8 kts | 28° |
| 2026-05-08 01:38 | 39.99654 | -82.88548 | 820 ft | 0 kts | 26° |